Time;durP1;ratioP1;P1;durP2;ratioP2;P2;SDS_P1;SDS_P2;PMS_P1;PMS_P2;Temp;Humidity;BMP_temperature;BMP_pressure;BME280_temperature;BME280_humidity;BME280_pressure;Samples;Min_cycle;Max_cycle;Signal;HPM_P1;HPM_P2
2022/02/24 00:02:07;;;;;;;8.48;4.47;;;;;;;6.86;52.02;95781.50;5031281;28;20482;-71
2022/02/24 00:04:33;;;;;;;11.80;4.10;;;;;;;6.82;52.10;95772.50;5031231;28;20029;-71
2022/02/24 00:07:01;;;;;;;7.35;4.13;;;;;;;6.86;52.14;95788.63;5031082;28;20029;-71
2022/02/24 00:09:27;;;;;;;8.32;3.30;;;;;;;6.69;52.28;95778.31;5047286;28;20037;-70
2022/02/24 00:11:52;;;;;;;6.35;3.30;;;;;;;6.81;52.29;95789.44;5049739;28;20057;-70
2022/02/24 00:14:18;;;;;;;4.60;3.42;;;;;;;6.76;52.58;95787.56;5051112;28;20378;-70
2022/02/24 00:16:43;;;;;;;4.57;3.38;;;;;;;6.71;51.82;95786.78;5049853;28;20547;-70
2022/02/24 00:19:08;;;;;;;5.75;3.65;;;;;;;6.75;51.94;95785.97;5050769;28;20035;-70
2022/02/24 00:21:34;;;;;;;8.50;3.72;;;;;;;6.60;51.78;95766.66;5051471;28;20051;-70
2022/02/24 00:23:59;;;;;;;7.68;3.67;;;;;;;6.74;52.41;95780.94;5050401;28;20079;-69
2022/02/24 00:26:24;;;;;;;7.20;3.58;;;;;;;6.66;51.90;95777.00;5050166;28;20056;-71
2022/02/24 00:28:50;;;;;;;7.60;3.72;;;;;;;6.62;52.72;95761.91;5050210;28;20246;-69
2022/02/24 00:31:15;;;;;;;8.73;3.60;;;;;;;6.57;52.37;95760.06;5050126;28;20442;-71
2022/02/24 00:33:41;;;;;;;6.65;3.40;;;;;;;6.58;52.54;95759.00;5050203;28;20095;-69
2022/02/24 00:36:07;;;;;;;4.32;2.90;;;;;;;6.57;52.18;95756.63;5048848;28;20025;-71
2022/02/24 00:38:33;;;;;;;4.03;3.05;;;;;;;6.59;52.68;95767.72;5049591;28;20080;-71
2022/02/24 00:40:58;;;;;;;7.63;3.53;;;;;;;6.59;52.12;95767.72;5050009;28;20025;-71
2022/02/24 00:43:23;;;;;;;8.95;3.33;;;;;;;6.58;52.15;95772.22;5048896;28;20392;-72
2022/02/24 00:45:49;;;;;;;6.60;2.75;;;;;;;6.27;52.38;95731.75;5049208;28;20028;-69
2022/02/24 00:48:14;;;;;;;6.55;3.00;;;;;;;6.68;52.77;95795.22;5050160;28;20036;-71
2022/02/24 00:50:40;;;;;;;6.00;2.72;;;;;;;6.69;52.50;95791.53;5050090;28;20417;-71
2022/02/24 00:53:05;;;;;;;6.13;2.65;;;;;;;6.74;53.07;95784.38;5053560;28;20025;-69
2022/02/24 00:55:31;;;;;;;5.50;3.20;;;;;;;6.74;52.70;95783.59;5060590;28;20082;-72
2022/02/24 00:57:56;;;;;;;3.67;2.60;;;;;;;6.59;52.81;95752.66;5053448;28;20037;-71
2022/02/24 01:00:22;;;;;;;3.22;2.92;;;;;;;6.62;52.94;95764.56;5053521;28;20029;-71
2022/02/24 01:02:47;;;;;;;5.13;3.15;;;;;;;6.66;53.27;95778.84;5053799;28;20103;-71
2022/02/24 01:05:13;;;;;;;3.80;3.13;;;;;;;6.62;53.38;95768.00;5053642;28;20104;-71
2022/02/24 01:07:38;;;;;;;4.25;2.67;;;;;;;6.57;53.26;95746.06;5053331;28;20033;-71
2022/02/24 01:10:05;;;;;;;6.35;3.33;;;;;;;6.59;53.00;95747.34;5037194;28;20099;-71
2022/02/24 01:12:31;;;;;;;4.95;3.00;;;;;;;6.73;53.86;95768.78;5032088;28;20179;-69
2022/02/24 01:14:58;;;;;;;4.25;2.78;;;;;;;6.70;53.90;95766.66;5032105;28;20565;-72
2022/02/24 01:17:23;;;;;;;3.55;2.95;;;;;;;6.73;53.93;95763.50;5034148;28;20038;-72
2022/02/24 01:19:49;;;;;;;3.65;3.08;;;;;;;6.66;53.53;95742.63;5033732;28;20084;-70
2022/02/24 01:22:16;;;;;;;7.55;3.00;;;;;;;6.60;54.28;95733.09;5031980;28;20025;-69
2022/02/24 01:24:42;;;;;;;3.75;3.10;;;;;;;6.86;53.59;95767.47;5048889;28;20124;-71
2022/02/24 01:27:08;;;;;;;6.07;3.20;;;;;;;6.79;54.24;95751.88;5053437;28;20452;-70
2022/02/24 01:29:33;;;;;;;4.10;2.72;;;;;;;6.84;54.25;95745.78;5053096;28;20104;-69
2022/02/24 01:31:59;;;;;;;4.85;2.75;;;;;;;6.87;53.87;95758.50;5052935;28;20029;-72
2022/02/24 01:34:27;;;;;;;3.97;3.42;;;;;;;6.90;53.93;95750.81;5053100;28;20033;-69
2022/02/24 01:36:53;;;;;;;4.85;3.20;;;;;;;6.80;54.09;95728.84;5053034;28;20485;-69
2022/02/24 01:39:18;;;;;;;5.65;3.30;;;;;;;6.77;54.39;95725.69;5052660;28;20569;-69
2022/02/24 01:41:43;;;;;;;4.68;3.25;;;;;;;6.87;54.76;95745.28;5052671;28;20025;-69
2022/02/24 01:44:11;;;;;;;5.43;3.08;;;;;;;6.95;54.09;95747.38;5052801;28;20082;-69
2022/02/24 01:46:37;;;;;;;5.57;3.60;;;;;;;6.91;54.34;95730.44;5052804;28;20147;-71
2022/02/24 01:49:04;;;;;;;6.28;3.50;;;;;;;6.96;54.14;95741.00;5052623;28;20104;-69
2022/02/24 01:51:31;;;;;;;4.63;3.45;;;;;;;6.87;54.55;95724.91;5052810;28;20036;-69
2022/02/24 01:53:56;;;;;;;3.83;3.30;;;;;;;6.76;54.95;95708.25;5045708;28;20029;-72
2022/02/24 01:56:22;;;;;;;6.88;3.08;;;;;;;6.90;54.06;95728.84;5049549;28;20392;-72
2022/02/24 01:58:48;;;;;;;4.18;3.78;;;;;;;6.86;54.03;95720.69;5052429;28;20047;-69
2022/02/24 02:01:14;;;;;;;4.00;3.63;;;;;;;6.82;54.67;95716.19;5052446;28;20025;-70
2022/02/24 02:03:40;;;;;;;4.07;3.10;;;;;;;6.80;54.70;95731.50;5050132;28;20032;-70
2022/02/24 02:06:06;;;;;;;3.95;3.60;;;;;;;6.77;54.83;95731.00;5052550;28;20028;-70
2022/02/24 02:08:32;;;;;;;4.00;3.60;;;;;;;6.74;54.90;95704.28;5051876;28;20025;-71
2022/02/24 02:10:57;;;;;;;5.40;4.13;;;;;;;6.82;54.59;95710.91;5052254;28;20037;-70
2022/02/24 02:13:23;;;;;;;5.78;4.10;;;;;;;6.46;54.94;95664.13;5051124;28;20493;-70
2022/02/24 02:15:49;;;;;;;5.40;3.55;;;;;;;6.56;54.70;95670.47;5051139;28;20473;-70
2022/02/24 02:18:14;;;;;;;4.93;3.63;;;;;;;6.75;55.20;95704.00;5052113;28;20055;-70
2022/02/24 02:20:40;;;;;;;5.95;3.97;;;;;;;6.83;55.21;95707.19;5052029;28;20028;-71
2022/02/24 02:23:06;;;;;;;4.70;3.30;;;;;;;6.68;54.22;95690.28;5051901;28;20029;-70
2022/02/24 02:25:32;;;;;;;3.75;3.33;;;;;;;6.46;54.58;95650.91;5051806;28;20516;-70
2022/02/24 02:27:57;;;;;;;5.45;3.80;;;;;;;6.70;54.42;95697.94;5052229;28;20082;-70
2022/02/24 02:30:23;;;;;;;4.03;3.47;;;;;;;6.51;54.63;95661.47;5051677;28;20469;-70
2022/02/24 02:32:48;;;;;;;3.90;3.10;;;;;;;6.68;54.93;95708.78;5052035;28;20029;-70
2022/02/24 02:35:15;;;;;;;5.00;3.72;;;;;;;6.74;54.64;95702.44;5052034;28;20029;-70
2022/02/24 02:37:40;;;;;;;4.65;4.15;;;;;;;6.64;55.18;95678.63;5052150;28;20021;-70
2022/02/24 02:40:06;;;;;;;6.35;4.22;;;;;;;6.75;54.99;95690.78;5035144;28;20024;-69
2022/02/24 02:42:32;;;;;;;6.18;4.00;;;;;;;6.71;54.87;95683.69;5049953;28;20033;-72
2022/02/24 02:44:57;;;;;;;8.00;4.50;;;;;;;6.81;55.09;95710.09;5051948;28;20029;-71
2022/02/24 02:47:23;;;;;;;4.75;4.25;;;;;;;6.71;55.43;95679.19;5051756;28;20025;-75
2022/02/24 02:49:48;;;;;;;5.68;4.13;;;;;;;6.71;54.85;95678.38;5050336;28;20515;-71
2022/02/24 02:52:13;;;;;;;4.10;3.70;;;;;;;6.83;55.05;95693.97;5050253;28;20107;-71
2022/02/24 02:54:39;;;;;;;5.45;4.13;;;;;;;6.85;55.41;95691.84;5051154;28;20051;-70
2022/02/24 02:57:04;;;;;;;7.03;4.43;;;;;;;6.74;55.23;95670.69;5051444;28;20429;-71
2022/02/24 02:59:30;;;;;;;7.13;4.40;;;;;;;6.87;55.63;95687.09;5051286;28;20025;-71
2022/02/24 03:01:55;;;;;;;4.13;3.55;;;;;;;6.81;55.68;95673.09;5051231;28;20021;-70
2022/02/24 03:04:22;;;;;;;5.72;3.92;;;;;;;6.54;54.91;95633.72;5065190;22;20110;-67
2022/02/24 03:06:48;;;;;;;4.70;4.15;;;;;;;6.70;55.11;95661.72;5044585;28;20485;-67
2022/02/24 03:09:13;;;;;;;6.95;4.25;;;;;;;6.53;55.63;95623.41;5049389;28;20073;-67
2022/02/24 03:11:39;;;;;;;6.82;4.15;;;;;;;6.81;55.64;95664.34;5051017;28;20029;-67
2022/02/24 03:14:05;;;;;;;6.93;4.25;;;;;;;6.90;54.96;95670.69;5051015;28;20033;-67
2022/02/24 03:16:30;;;;;;;4.32;3.72;;;;;;;6.79;55.12;95659.31;5049897;28;20115;-68
2022/02/24 03:18:55;;;;;;;5.40;4.07;;;;;;;6.87;55.55;95671.22;5050993;28;20143;-67
2022/02/24 03:21:21;;;;;;;5.25;4.15;;;;;;;6.88;55.07;95667.53;5050881;28;20390;-67
2022/02/24 03:23:46;;;;;;;4.38;3.97;;;;;;;6.53;55.39;95605.69;5045966;28;20103;-67
2022/02/24 03:26:12;;;;;;;5.63;3.75;;;;;;;6.86;55.24;95653.75;5028737;28;20029;-67
2022/02/24 03:28:38;;;;;;;5.38;3.50;;;;;;;6.43;54.97;95603.84;5030802;28;20030;-67
2022/02/24 03:31:04;;;;;;;4.18;3.75;;;;;;;6.76;55.64;95644.81;5030595;28;20033;-67
2022/02/24 03:33:30;;;;;;;6.68;4.43;;;;;;;6.73;55.18;95644.53;5031310;28;20037;-67
2022/02/24 03:35:55;;;;;;;4.40;3.70;;;;;;;6.46;54.94;95603.34;5030100;28;20029;-67
2022/02/24 03:38:21;;;;;;;4.82;3.72;;;;;;;6.64;55.60;95624.97;5031513;28;20021;-67
2022/02/24 03:40:46;;;;;;;4.30;3.20;;;;;;;6.71;55.99;95647.44;5034243;28;20025;-67
2022/02/24 03:43:11;;;;;;;4.50;3.00;;;;;;;6.80;56.08;95650.31;5051176;28;20017;-67
2022/02/24 03:45:37;;;;;;;5.05;3.38;;;;;;;6.61;55.33;95612.31;5051222;28;20035;-67
2022/02/24 03:48:03;;;;;;;4.75;3.58;;;;;;;6.47;55.52;95594.34;5050931;28;20036;-67
2022/02/24 03:50:28;;;;;;;8.68;3.60;;;;;;;6.70;55.39;95632.63;5050958;28;20017;-67
2022/02/24 03:52:54;;;;;;;12.25;3.75;;;;;;;6.85;55.46;95645.03;5051034;28;20028;-67
2022/02/24 03:55:19;;;;;;;3.28;2.97;;;;;;;6.79;55.82;95635.53;5034546;28;20044;-67
2022/02/24 03:57:44;;;;;;;5.53;3.17;;;;;;;6.03;55.87;95520.16;5029484;28;20030;-67
2022/02/24 04:00:10;;;;;;;5.25;3.17;;;;;;;6.77;55.73;95617.28;5030250;28;20033;-67
2022/02/24 04:02:36;;;;;;;3.85;2.90;;;;;;;6.37;55.03;95551.28;5030730;28;20061;-67
2022/02/24 04:05:02;;;;;;;4.22;3.67;;;;;;;6.75;55.56;95608.03;5030668;28;20502;-67
2022/02/24 04:07:28;;;;;;;3.65;3.25;;;;;;;6.90;55.64;95633.66;5030753;28;20034;-66
2022/02/24 04:09:53;;;;;;;3.20;2.70;;;;;;;6.93;55.66;95623.34;5029963;28;20051;-68
2022/02/24 04:12:19;;;;;;;3.17;2.88;;;;;;;6.86;55.86;95608.81;5030514;28;20113;-67
2022/02/24 04:14:45;;;;;;;5.18;3.40;;;;;;;6.79;55.23;95590.59;5030407;28;20041;-67
2022/02/24 04:17:11;;;;;;;3.65;2.55;;;;;;;6.75;55.56;95578.94;5030810;28;20099;-67
2022/02/24 04:19:36;;;;;;;3.35;2.50;;;;;;;6.77;55.88;95576.84;5030302;28;20100;-67
2022/02/24 04:22:02;;;;;;;3.45;2.70;;;;;;;6.59;55.82;95529.84;5030586;28;20105;-67
2022/02/24 04:24:28;;;;;;;5.18;2.70;;;;;;;6.49;55.48;95515.56;5030032;28;20026;-69
2022/02/24 04:26:53;;;;;;;4.43;2.30;;;;;;;7.10;55.66;95599.22;5032757;28;20080;-67
2022/02/24 04:29:19;;;;;;;3.03;2.30;;;;;;;6.93;55.86;95561.72;5034183;28;20025;-66
2022/02/24 04:31:44;;;;;;;2.50;2.22;;;;;;;7.20;55.30;95590.44;5034159;28;20079;-67
2022/02/24 04:34:09;;;;;;;2.60;2.40;;;;;;;6.93;55.17;95553.78;5034314;28;20021;-67
2022/02/24 04:36:35;;;;;;;2.50;2.15;;;;;;;7.09;55.63;95578.31;5034231;28;20389;-67
2022/02/24 04:39:00;;;;;;;2.95;2.13;;;;;;;7.21;54.87;95590.16;5033380;28;20390;-68
2022/02/24 04:41:25;;;;;;;3.38;2.42;;;;;;;7.26;55.02;95595.44;5033702;28;20141;-67
2022/02/24 04:43:51;;;;;;;3.42;2.33;;;;;;;7.18;55.00;95576.72;5032687;28;20096;-67
2022/02/24 04:46:16;;;;;;;2.50;2.05;;;;;;;7.25;54.92;95582.50;5034158;28;20026;-66
2022/02/24 04:48:42;;;;;;;2.42;2.10;;;;;;;7.12;55.22;95554.78;5033839;28;20025;-67
2022/02/24 04:51:07;;;;;;;3.45;2.80;;;;;;;7.27;54.61;95565.28;5033803;28;20032;-67
2022/02/24 04:53:33;;;;;;;7.25;2.63;;;;;;;7.19;55.19;95552.63;5032489;28;20164;-66
2022/02/24 04:55:58;;;;;;;2.20;2.00;;;;;;;7.23;54.88;95558.97;5031966;28;20095;-67
2022/02/24 04:58:24;;;;;;;6.43;2.58;;;;;;;7.12;54.81;95538.91;5033704;28;20027;-67
2022/02/24 05:00:49;;;;;;;2.60;2.40;;;;;;;7.15;55.59;95543.63;5033668;28;20025;-67
2022/02/24 05:03:14;;;;;;;2.63;2.20;;;;;;;7.26;55.34;95560.25;5033632;28;20022;-67
2022/02/24 05:05:42;;;;;;;3.63;2.63;;;;;;;7.22;55.26;95544.16;5033720;28;20040;-66
2022/02/24 05:08:08;;;;;;;2.50;2.30;;;;;;;6.87;54.74;95502.00;5032552;28;20109;-66
2022/02/24 05:10:33;;;;;;;3.85;1.85;;;;;;;7.15;54.42;95530.41;5032728;28;20156;-67
2022/02/24 05:12:59;;;;;;;3.80;2.10;;;;;;;7.13;54.52;95527.25;5033602;28;20111;-67
2022/02/24 05:15:24;;;;;;;3.38;2.20;;;;;;;7.26;54.64;95547.81;5033517;28;20033;-67
2022/02/24 05:17:50;;;;;;;2.10;1.90;;;;;;;7.01;55.14;95502.97;5033543;28;20040;-68
2022/02/24 05:20:16;;;;;;;2.95;2.70;;;;;;;7.13;55.01;95524.63;5033068;28;20069;-67
2022/02/24 05:22:43;;;;;;;3.30;2.58;;;;;;;7.35;55.18;95560.47;5033525;28;20505;-67
2022/02/24 05:25:11;;;;;;;3.13;2.63;;;;;;;7.37;54.41;95553.88;5032819;28;20032;-67
2022/02/24 05:27:37;;;;;;;3.03;2.15;;;;;;;7.34;54.89;95543.03;5051606;28;20025;-67
2022/02/24 05:30:04;;;;;;;3.55;2.28;;;;;;;7.06;54.30;95502.94;5052839;28;20050;-66
2022/02/24 05:32:30;;;;;;;3.50;2.45;;;;;;;6.92;54.80;95472.88;5053065;28;20032;-67
2022/02/24 05:34:55;;;;;;;2.72;2.30;;;;;;;7.17;54.66;95509.78;5052997;28;20420;-68
2022/02/24 05:37:23;;;;;;;2.40;2.20;;;;;;;7.06;54.61;95494.22;5052792;28;20059;-67
2022/02/24 05:39:49;;;;;;;3.28;2.50;;;;;;;7.27;54.74;95517.66;5044833;28;20038;-68
2022/02/24 05:42:15;;;;;;;3.42;2.85;;;;;;;7.43;54.58;95541.41;5032870;28;20029;-68
2022/02/24 05:44:40;;;;;;;4.07;2.67;;;;;;;7.22;54.68;95520.34;5033571;28;20025;-67
2022/02/24 05:47:06;;;;;;;3.58;2.70;;;;;;;7.43;54.71;95536.91;5033020;28;20036;-67
2022/02/24 05:49:31;;;;;;;2.97;2.67;;;;;;;7.43;54.60;95546.69;5032608;28;20456;-66
2022/02/24 05:51:56;;;;;;;2.80;2.60;;;;;;;7.17;54.81;95496.56;5032805;28;20053;-67
2022/02/24 05:54:22;;;;;;;3.72;2.80;;;;;;;7.15;54.63;95487.28;5032239;28;20112;-67
2022/02/24 05:56:47;;;;;;;3.28;2.75;;;;;;;7.20;54.72;95495.22;5032606;28;20029;-67
2022/02/24 05:59:13;;;;;;;3.60;2.90;;;;;;;7.29;54.59;95506.81;5032337;28;20108;-67
2022/02/24 06:01:38;;;;;;;3.00;2.70;;;;;;;7.34;54.10;95516.56;5032582;28;20108;-66
2022/02/24 06:04:04;;;;;;;4.50;3.22;;;;;;;7.30;54.34;95503.88;5031161;28;20216;-67
2022/02/24 06:06:29;;;;;;;4.28;2.65;;;;;;;7.56;54.31;95535.47;5032592;28;20037;-67
2022/02/24 06:08:55;;;;;;;3.35;2.70;;;;;;;7.25;54.45;95482.72;5032577;28;20029;-68
2022/02/24 06:11:20;;;;;;;4.50;2.75;;;;;;;7.71;54.21;95545.97;5030249;28;20029;-68
2022/02/24 06:13:46;;;;;;;4.78;2.90;;;;;;;7.31;54.03;95486.13;5031163;28;20660;-68
2022/02/24 06:16:11;;;;;;;4.60;3.33;;;;;;;7.78;53.80;95543.81;5032396;28;20387;-67
2022/02/24 06:18:36;;;;;;;3.63;2.50;;;;;;;7.74;53.76;95526.09;5032245;28;20025;-64
2022/02/24 06:21:02;;;;;;;3.47;3.10;;;;;;;7.47;54.13;95482.34;5032041;28;20026;-67
2022/02/24 06:23:27;;;;;;;3.20;2.90;;;;;;;7.68;54.20;95517.41;5032324;28;20033;-66
2022/02/24 06:25:53;;;;;;;3.50;2.90;;;;;;;7.91;53.80;95531.78;5031568;28;20037;-65
2022/02/24 06:28:19;;;;;;;4.43;2.92;;;;;;;7.98;53.05;95499.69;5030160;28;20022;-65
2022/02/24 06:30:44;;;;;;;2.92;2.63;;;;;;;8.30;52.61;95531.72;5030310;28;20030;-64
2022/02/24 06:33:10;;;;;;;3.83;2.40;;;;;;;7.94;52.12;95457.09;5031892;28;20492;-65
2022/02/24 06:35:35;;;;;;;4.47;2.88;;;;;;;8.43;52.27;95521.56;5030540;28;20034;-65
2022/02/24 06:38:02;;;;;;;2.65;2.03;;;;;;;8.48;51.85;95521.50;5031663;28;20029;-67
2022/02/24 06:40:29;;;;;;;3.13;2.08;;;;;;;8.57;52.00;95522.47;5030720;28;20060;-68
2022/02/24 06:42:54;;;;;;;3.35;2.17;;;;;;;8.65;51.29;95518.41;5031693;28;20241;-66
2022/02/24 06:45:19;;;;;;;5.05;2.03;;;;;;;8.73;51.36;95529.19;5031557;28;20078;-66
2022/02/24 06:47:45;;;;;;;5.38;3.22;;;;;;;8.57;51.24;95496.75;5030365;28;20021;-67
2022/02/24 06:50:11;;;;;;;3.47;2.08;;;;;;;8.87;51.10;95529.31;5030449;28;20028;-67
2022/02/24 06:52:38;;;;;;;2.88;2.00;;;;;;;8.72;51.00;95479.09;5031381;28;20032;-65
2022/02/24 06:55:07;;;;;;;2.25;1.90;;;;;;;8.66;51.23;95491.63;5031303;28;20041;-73
2022/02/24 06:57:44;;;;;;;7.30;2.00;;;;;;;8.94;51.08;95491.81;5049825;28;20477;-65
2022/02/24 07:00:10;;;;;;;3.45;1.90;;;;;;;9.26;50.54;95507.06;5051006;28;20029;-64
2022/02/24 07:02:35;;;;;;;4.15;1.77;;;;;;;9.08;50.13;95455.56;5050221;28;20032;-66
2022/02/24 07:05:01;;;;;;;3.13;1.92;;;;;;;9.46;49.72;95498.03;5051804;28;20068;-64
2022/02/24 07:07:27;;;;;;;6.78;1.98;;;;;;;9.41;49.55;95482.97;5034104;28;20025;-65
2022/02/24 07:09:53;;;;;;;3.25;1.65;;;;;;;9.80;49.11;95517.19;5039096;28;20268;-65
2022/02/24 07:12:18;;;;;;;2.28;1.65;;;;;;;9.92;49.05;95513.28;5031218;28;20462;-64
2022/02/24 07:14:44;;;;;;;4.07;1.77;;;;;;;10.00;48.50;95499.34;5030197;28;20033;-67
2022/02/24 07:17:09;;;;;;;2.05;1.80;;;;;;;10.00;48.08;95483.41;5029794;28;20025;-64
2022/02/24 07:19:34;;;;;;;7.25;2.20;;;;;;;10.16;47.67;95476.75;5029773;28;20026;-66
2022/02/24 07:22:00;;;;;;;11.23;1.90;;;;;;;10.32;48.02;95478.06;5029194;28;20056;-65
2022/02/24 07:24:25;;;;;;;6.35;1.58;;;;;;;10.49;47.85;95460.75;5040214;28;20025;-67
2022/02/24 07:26:51;;;;;;;4.35;1.90;;;;;;;10.77;47.34;95475.63;5049514;28;20021;-66
2022/02/24 07:29:17;;;;;;;2.35;1.75;;;;;;;10.63;46.55;95427.75;5049153;28;20025;-66
2022/02/24 07:31:42;;;;;;;2.55;1.40;;;;;;;10.78;45.85;95426.66;5051689;28;20043;-66
2022/02/24 07:34:08;;;;;;;2.75;1.70;;;;;;;11.09;45.57;95439.31;5049653;28;20029;-67
2022/02/24 07:36:34;;;;;;;3.78;1.40;;;;;;;10.84;45.33;95390.88;5047094;28;20457;-68
2022/02/24 07:38:59;;;;;;;2.78;1.50;;;;;;;11.44;44.94;95443.84;5030253;28;20026;-68
2022/02/24 07:41:25;;;;;;;8.30;1.58;;;;;;;11.53;45.26;95432.50;5029438;28;20544;-68
2022/02/24 07:43:50;;;;;;;4.05;1.52;;;;;;;11.70;44.28;95451.25;5029487;28;20437;-68
2022/02/24 07:46:16;;;;;;;4.68;1.33;;;;;;;11.73;44.07;95445.34;5030830;28;20094;-69
2022/02/24 07:48:41;;;;;;;11.63;1.98;;;;;;;11.97;44.05;95453.81;5029132;28;20033;-69
2022/02/24 07:51:06;;;;;;;7.70;1.40;;;;;;;11.76;42.79;95401.28;5030445;28;20105;-68
2022/02/24 07:53:32;;;;;;;3.28;0.98;;;;;;;12.35;42.19;95460.63;5029659;28;20033;-69
2022/02/24 07:55:57;;;;;;;3.28;1.10;;;;;;;12.52;41.78;95475.91;5028903;28;20164;-68
2022/02/24 07:58:23;;;;;;;1.63;1.00;;;;;;;12.69;41.83;95478.63;5030380;28;20029;-67
2022/02/24 08:00:48;;;;;;;1.40;0.88;;;;;;;12.65;41.28;95464.38;5028947;28;20029;-68
2022/02/24 08:03:14;;;;;;;5.80;1.27;;;;;;;12.82;41.16;95464.41;5029469;28;20034;-68
2022/02/24 08:05:39;;;;;;;1.42;0.93;;;;;;;12.47;40.39;95474.94;5030600;28;20037;-67
2022/02/24 08:08:05;;;;;;;3.80;1.10;;;;;;;12.56;40.27;95445.63;5030418;28;20144;-67
2022/02/24 08:10:30;;;;;;;1.48;1.00;;;;;;;12.82;40.29;95453.72;5030341;28;20029;-68
2022/02/24 08:12:56;;;;;;;1.58;1.23;;;;;;;12.83;40.09;95433.94;5029634;28;20044;-66
2022/02/24 08:15:22;;;;;;;1.20;1.10;;;;;;;13.05;40.42;95437.59;5030753;28;20025;-67
2022/02/24 08:17:50;;;;;;;3.58;1.33;;;;;;;13.26;40.13;95460.00;5029330;28;20087;-67
2022/02/24 08:20:15;;;;;;;6.03;1.35;;;;;;;13.41;39.78;95464.88;5030051;28;20556;-67
2022/02/24 08:22:46;;;;;;;4.03;1.75;;;;;;;13.34;40.00;95429.81;5021494;28;20060;-67
2022/02/24 08:25:17;;;;;;;2.63;1.60;;;;;;;13.62;39.81;95456.22;5030002;28;20044;-67
2022/02/24 08:27:44;;;;;;;4.70;1.20;;;;;;;13.68;39.38;95455.75;5030264;28;20103;-69
2022/02/24 08:30:12;;;;;;;4.38;1.42;;;;;;;13.66;39.07;95447.25;5029564;28;20117;-67
2022/02/24 08:32:39;;;;;;;7.65;1.70;;;;;;;13.65;39.22;95432.31;5030149;28;20020;-66
2022/02/24 08:35:08;;;;;;;9.30;2.58;;;;;;;13.18;38.82;95361.91;5030205;28;20033;-69
2022/02/24 08:37:34;;;;;;;7.25;1.27;;;;;;;13.76;39.23;95440.78;5029644;28;20029;-67
2022/02/24 08:40:00;;;;;;;8.77;1.35;;;;;;;13.73;39.09;95436.09;5029793;28;20071;-67
2022/02/24 08:42:26;;;;;;;2.38;1.00;;;;;;;13.57;38.72;95410.97;5030226;28;20029;-66
2022/02/24 08:44:55;;;;;;;4.60;1.23;;;;;;;13.62;38.28;95416.91;5030056;28;20030;-67
2022/02/24 08:47:22;;;;;;;2.30;1.33;;;;;;;13.56;39.01;95399.44;5030152;28;20026;-67
2022/02/24 08:49:48;;;;;;;3.63;1.20;;;;;;;13.98;38.74;95451.31;5029650;28;20025;-67
2022/02/24 08:52:14;;;;;;;1.85;1.08;;;;;;;13.87;37.85;95414.50;5027856;28;20120;-68
2022/02/24 08:54:40;;;;;;;3.30;1.13;;;;;;;13.99;37.98;95417.34;5028319;28;20124;-67
2022/02/24 08:57:06;;;;;;;6.10;1.63;;;;;;;14.24;37.49;95437.88;5028565;28;20583;-68
2022/02/24 08:59:32;;;;;;;6.28;1.33;;;;;;;14.22;37.26;95416.00;5029909;28;20039;-67
2022/02/24 09:01:57;;;;;;;1.60;1.02;;;;;;;14.21;36.89;95398.38;5029904;28;20083;-67
2022/02/24 09:04:23;;;;;;;5.50;0.90;;;;;;;14.28;36.77;95397.91;5028348;28;20578;-67
2022/02/24 09:06:48;;;;;;;4.10;1.20;;;;;;;13.93;36.77;95341.06;5028159;28;20029;-68
2022/02/24 09:09:13;;;;;;;5.32;1.00;;;;;;;14.35;36.94;95387.47;5029505;28;20032;-67
2022/02/24 09:11:39;;;;;;;2.55;1.45;;;;;;;14.68;36.21;95425.13;5042964;22;20038;-73
2022/02/24 09:14:05;;;;;;;1.77;1.00;;;;;;;14.82;36.57;95424.91;5033695;28;20100;-73
2022/02/24 09:16:31;;;;;;;2.10;0.90;;;;;;;14.76;35.78;95402.88;5033844;28;20026;-73
2022/02/24 09:18:57;;;;;;;3.80;1.00;;;;;;;14.72;35.63;95391.25;5032093;28;20025;-73
2022/02/24 09:21:23;;;;;;;3.55;1.00;;;;;;;14.97;36.02;95410.19;5033626;28;20079;-72
2022/02/24 09:23:49;;;;;;;2.63;1.08;;;;;;;14.99;35.20;95394.56;5049619;28;20025;-73
2022/02/24 09:26:15;;;;;;;2.38;1.10;;;;;;;14.95;34.75;95393.66;5051917;28;20032;-73
2022/02/24 09:28:41;;;;;;;2.08;0.75;;;;;;;15.16;35.08;95397.13;5053245;28;20021;-75
2022/02/24 09:31:06;;;;;;;0.65;0.65;;;;;;;15.21;34.78;95380.84;5053506;28;20021;-72
2022/02/24 09:33:32;;;;;;;2.38;0.80;;;;;;;15.42;34.52;95391.56;5053257;28;20044;-72
2022/02/24 09:35:57;;;;;;;1.95;1.00;;;;;;;15.44;34.41;95372.47;5051926;28;20137;-73
2022/02/24 09:38:24;;;;;;;4.05;0.70;;;;;;;15.63;34.31;95374.66;5051229;28;20079;-72
2022/02/24 09:40:52;;;;;;;0.90;0.60;;;;;;;15.65;32.99;95377.81;5053279;28;20029;-73
2022/02/24 09:43:23;;;;;;;1.52;0.85;;;;;;;15.52;32.65;95380.44;5052178;28;20027;-73
2022/02/24 09:45:49;;;;;;;1.85;0.70;;;;;;;15.03;32.34;95390.91;5068807;28;20469;-74
2022/02/24 09:48:19;;;;;;;2.15;0.75;;;;;;;14.72;32.36;95383.22;5053117;28;20499;-73
2022/02/24 09:50:52;;;;;;;1.38;0.60;;;;;;;15.31;32.47;95385.03;5052965;28;20100;-73
2022/02/24 09:53:19;;;;;;;5.88;1.42;;;;;;;14.81;32.08;95385.84;5052777;28;20493;-73
2022/02/24 09:55:46;;;;;;;0.88;0.50;;;;;;;14.29;32.49;95346.72;5052915;28;20064;-73
2022/02/24 09:58:11;;;;;;;1.45;0.80;;;;;;;14.67;32.53;95371.91;5052833;28;20035;-73
2022/02/24 10:00:37;;;;;;;2.15;0.75;;;;;;;15.39;31.75;95386.06;5052619;28;20024;-73
2022/02/24 10:03:44;;;;;;;2.65;0.60;;;;;;;14.20;32.74;95350.56;5053015;28;20075;-75
2022/02/24 10:06:11;;;;;;;2.88;0.80;;;;;;;15.61;32.17;95366.97;5052695;28;20124;-74
2022/02/24 10:08:48;;;;;;;2.67;0.70;;;;;;;14.95;32.14;95364.19;5050567;28;20032;-73
2022/02/24 10:11:22;;;;;;;1.27;0.80;;;;;;;14.87;32.75;95359.66;5052610;28;20033;-73
2022/02/24 10:14:00;;;;;;;1.42;0.75;;;;;;;16.13;31.73;95360.31;5052733;28;20083;-74
2022/02/24 10:16:27;;;;;;;2.85;0.98;;;;;;;16.10;31.32;95357.16;5052587;28;20071;-73
2022/02/24 10:18:54;;;;;;;0.88;0.60;;;;;;;15.37;32.38;95356.13;5052163;28;20711;-73
2022/02/24 10:21:20;;;;;;;1.23;0.90;;;;;;;15.77;31.91;95351.06;5051210;28;20033;-74
2022/02/24 10:23:47;;;;;;;4.40;0.80;;;;;;;15.98;31.56;95351.00;5050764;28;20116;-70
2022/02/24 10:26:14;;;;;;;1.38;0.90;;;;;;;15.60;32.54;95357.34;5051193;28;20056;-68
2022/02/24 10:28:52;;;;;;;1.35;1.13;;;;;;;15.84;32.28;95345.94;5052137;28;20035;-68
2022/02/24 10:31:25;;;;;;;1.80;0.85;;;;;;;16.48;31.19;95334.59;5052191;28;20080;-74
2022/02/24 10:34:06;;;;;;;3.40;1.10;;;;;;;15.95;31.85;95349.75;5052080;28;20029;-69
2022/02/24 10:36:37;;;;;;;2.80;1.30;;;;;;;16.05;31.96;95332.44;5050722;28;20020;-67
2022/02/24 10:39:18;;;;;;;1.70;0.80;;;;;;;16.09;31.66;95331.44;5049810;28;20166;-70
2022/02/24 10:41:46;;;;;;;2.85;1.02;;;;;;;16.30;31.12;95320.59;5050313;28;20124;-70
2022/02/24 10:44:19;;;;;;;2.33;1.00;;;;;;;16.67;31.46;95325.16;5051596;28;20024;-70
2022/02/24 10:46:48;;;;;;;1.58;1.00;;;;;;;16.25;31.31;95328.09;5051952;28;20025;-68
2022/02/24 10:49:30;;;;;;;1.92;1.00;;;;;;;16.87;31.29;95324.28;5051468;28;20096;-71
2022/02/24 10:52:15;;;;;;;2.55;0.80;;;;;;;17.10;30.60;95322.66;5051713;28;20017;-69
2022/02/24 10:54:43;;;;;;;3.47;1.02;;;;;;;17.08;30.14;95302.59;5050624;28;20016;-71
2022/02/24 10:57:21;;;;;;;3.72;1.17;;;;;;;16.91;30.37;95302.88;5050097;28;20115;-75
2022/02/24 10:59:48;;;;;;;1.75;0.88;;;;;;;16.83;30.67;95299.97;5049675;28;20037;-72
2022/02/24 11:02:14;;;;;;;3.33;1.00;;;;;;;17.19;30.91;95310.97;5051402;28;20385;-72
2022/02/24 11:04:40;;;;;;;2.53;1.27;;;;;;;16.42;31.57;95290.28;5050082;28;20028;-72
2022/02/24 11:07:07;;;;;;;2.33;1.40;;;;;;;16.97;31.37;95286.19;5050028;28;20424;-71
2022/02/24 11:09:35;;;;;;;5.90;1.40;;;;;;;16.31;32.46;95273.06;5050184;28;20390;-71
2022/02/24 11:12:05;;;;;;;1.88;1.08;;;;;;;15.81;32.94;95280.31;5051198;28;20385;-71
2022/02/24 11:14:33;;;;;;;3.13;1.20;;;;;;;15.09;33.29;95274.38;5051097;28;20557;-71
2022/02/24 11:16:59;;;;;;;2.30;1.20;;;;;;;15.66;33.14;95272.13;5051155;28;20423;-72
2022/02/24 11:19:26;;;;;;;1.95;1.35;;;;;;;16.64;32.39;95268.34;5049515;28;20075;-71
2022/02/24 11:21:53;;;;;;;1.67;1.17;;;;;;;16.48;32.50;95269.34;5049488;28;20021;-70
2022/02/24 11:24:18;;;;;;;1.85;1.17;;;;;;;15.50;33.14;95255.88;5050534;28;20021;-71
2022/02/24 11:26:52;;;;;;;4.32;1.98;;;;;;;15.09;34.38;95249.50;5050984;28;20024;-71
2022/02/24 11:29:25;;;;;;;2.83;1.20;;;;;;;15.69;33.64;95242.75;5050731;28;20024;-71
2022/02/24 11:31:54;;;;;;;4.10;1.10;;;;;;;15.65;33.64;95239.16;5050826;28;20100;-71
2022/02/24 11:34:54;;;;;;;2.55;0.95;;;;;;;15.57;32.03;95238.13;5049309;28;20029;-71
2022/02/24 11:37:24;;;;;;;2.35;1.00;;;;;;;15.98;32.27;95241.78;5044875;28;20041;-73